Time;durP1;ratioP1;P1;durP2;ratioP2;P2;SDS_P1;SDS_P2;PMS_P1;PMS_P2;Temp;Humidity;BMP_temperature;BMP_pressure;BME280_temperature;BME280_humidity;BME280_pressure;Samples;Min_cycle;Max_cycle;Signal;HPM_P1;HPM_P2
2023/11/29 00:00:30;;;;;;;18.92;11.65;;;3.50;92.10;;;;;;5036028;28;20592;-77
2023/11/29 00:02:55;;;;;;;15.15;10.25;;;3.50;92.00;;;;;;5038496;28;20147;-77
2023/11/29 00:05:21;;;;;;;15.65;10.18;;;3.50;92.00;;;;;;5038947;28;20041;-80
2023/11/29 00:07:47;;;;;;;20.67;11.45;;;3.60;92.00;;;;;;5040125;28;20052;-79
2023/11/29 00:10:13;;;;;;;16.13;10.65;;;3.60;91.90;;;;;;5037292;28;20036;-77
2023/11/29 00:12:38;;;;;;;18.55;11.38;;;3.60;91.90;;;;;;5036516;28;20461;-78
2023/11/29 00:15:04;;;;;;;16.63;10.13;;;3.60;91.90;;;;;;5043150;28;20060;-79
2023/11/29 00:17:30;;;;;;;18.48;10.82;;;3.60;91.80;;;;;;5033212;28;20040;-79
2023/11/29 00:19:56;;;;;;;19.33;10.63;;;3.60;91.80;;;;;;5034323;28;20029;-77
2023/11/29 00:22:22;;;;;;;14.00;10.32;;;3.60;91.80;;;;;;5035724;28;20035;-79
2023/11/29 00:24:48;;;;;;;18.40;11.45;;;3.60;91.70;;;;;;5036507;28;20354;-80
2023/11/29 00:27:14;;;;;;;18.60;10.63;;;3.60;91.70;;;;;;5039505;28;20627;-77
2023/11/29 00:29:40;;;;;;;17.58;9.68;;;3.60;91.60;;;;;;5040530;28;20024;-77
2023/11/29 00:32:06;;;;;;;18.10;10.25;;;3.60;91.60;;;;;;5040167;28;20334;-79
2023/11/29 00:34:31;;;;;;;13.63;9.65;;;3.60;91.50;;;;;;5039030;28;20017;-78
2023/11/29 00:36:58;;;;;;;15.05;10.18;;;3.60;91.50;;;;;;5034428;28;20052;-79
2023/11/29 00:39:24;;;;;;;15.40;10.23;;;3.60;91.50;;;;;;5041065;28;20083;-77
2023/11/29 00:41:49;;;;;;;16.92;9.75;;;3.60;91.40;;;;;;5036748;28;20057;-79
2023/11/29 00:44:15;;;;;;;14.43;9.32;;;3.60;91.40;;;;;;5032651;28;20029;-78
2023/11/29 00:46:41;;;;;;;15.73;10.45;;;3.60;91.40;;;;;;5039164;28;20496;-79
2023/11/29 00:49:07;;;;;;;17.13;10.02;;;3.60;91.40;;;;;;5035327;28;20029;-77
2023/11/29 00:51:33;;;;;;;15.65;10.55;;;3.60;91.40;;;;;;5039221;28;20048;-77
2023/11/29 00:53:58;;;;;;;17.38;10.45;;;3.60;91.40;;;;;;5034621;28;20037;-77
2023/11/29 00:56:24;;;;;;;13.77;9.70;;;3.50;91.40;;;;;;5040356;28;20037;-79
2023/11/29 00:58:50;;;;;;;16.15;10.00;;;3.50;91.40;;;;;;5039507;28;20013;-77
2023/11/29 01:01:16;;;;;;;14.73;9.82;;;3.40;91.30;;;;;;5036803;28;20028;-78
2023/11/29 01:03:41;;;;;;;16.30;9.70;;;3.40;91.50;;;;;;5038676;28;20079;-77
2023/11/29 01:06:07;;;;;;;16.23;9.68;;;3.30;91.50;;;;;;5041949;28;20045;-77
2023/11/29 01:08:33;;;;;;;16.70;10.15;;;3.30;91.70;;;;;;5031364;28;20115;-78
2023/11/29 01:10:59;;;;;;;16.65;10.23;;;3.30;91.70;;;;;;5031863;28;20116;-77
2023/11/29 01:13:25;;;;;;;20.73;10.68;;;3.20;91.80;;;;;;5036540;28;20041;-79
2023/11/29 01:15:50;;;;;;;17.25;9.73;;;3.20;91.90;;;;;;5036606;28;20037;-78
2023/11/29 01:18:17;;;;;;;14.18;9.73;;;3.20;92.00;;;;;;5032519;28;20025;-77
2023/11/29 01:20:43;;;;;;;12.90;9.13;;;3.20;92.00;;;;;;5035096;28;20127;-79
2023/11/29 01:23:08;;;;;;;15.98;10.15;;;3.30;92.00;;;;;;5040229;28;20071;-77
2023/11/29 01:25:34;;;;;;;17.80;10.20;;;3.20;92.00;;;;;;5039466;28;20057;-77
2023/11/29 01:28:01;;;;;;;16.50;9.68;;;3.20;91.90;;;;;;5035197;28;20025;-78
2023/11/29 01:30:27;;;;;;;15.52;10.35;;;3.20;92.00;;;;;;5036560;28;20497;-77
2023/11/29 01:32:53;;;;;;;16.83;9.73;;;3.10;91.90;;;;;;5041804;28;20052;-78
2023/11/29 01:35:18;;;;;;;15.32;9.55;;;3.10;91.90;;;;;;5037730;28;20029;-77
2023/11/29 01:37:44;;;;;;;15.60;9.75;;;3.10;92.00;;;;;;5038427;28;20037;-76
2023/11/29 01:40:10;;;;;;;14.40;10.00;;;3.10;92.10;;;;;;5039260;28;20045;-76
2023/11/29 01:42:36;;;;;;;17.02;9.55;;;3.10;92.10;;;;;;5040438;28;20065;-77
2023/11/29 01:45:03;;;;;;;13.75;9.38;;;3.10;92.20;;;;;;5044192;28;20044;-79
2023/11/29 01:47:36;;;;;;;17.20;10.40;;;3.10;92.30;;;;;;5038170;28;20152;-79
2023/11/29 01:50:07;;;;;;;17.45;9.80;;;3.00;92.30;;;;;;5032125;28;20481;-78
2023/11/29 01:52:34;;;;;;;18.48;9.70;;;3.00;92.40;;;;;;5034355;28;20067;-77
2023/11/29 01:55:01;;;;;;;16.65;9.82;;;3.10;92.40;;;;;;5036512;28;20047;-77
2023/11/29 01:57:27;;;;;;;15.45;10.13;;;3.10;92.60;;;;;;5032634;28;20437;-77
2023/11/29 01:59:53;;;;;;;14.73;9.82;;;3.10;92.60;;;;;;5035549;28;20037;-78
2023/11/29 02:02:19;;;;;;;16.63;10.32;;;3.10;92.50;;;;;;5059207;28;20040;-79
2023/11/29 02:04:45;;;;;;;17.92;9.57;;;3.10;92.70;;;;;;5063490;28;20034;-80
2023/11/29 02:07:12;;;;;;;17.30;9.63;;;3.20;92.70;;;;;;5041647;28;20040;-79
2023/11/29 02:09:41;;;;;;;14.27;9.20;;;3.30;92.50;;;;;;5039289;28;20123;-78
2023/11/29 02:12:08;;;;;;;14.73;9.05;;;3.40;92.20;;;;;;5038969;28;20131;-78
2023/11/29 02:14:43;;;;;;;17.33;9.82;;;3.50;92.10;;;;;;5036572;28;20029;-78
2023/11/29 02:17:09;;;;;;;16.52;9.73;;;3.60;91.80;;;;;;5035943;28;20043;-78
2023/11/29 02:19:35;;;;;;;15.40;8.82;;;3.60;91.60;;;;;;5033727;28;20045;-77
2023/11/29 02:22:01;;;;;;;14.65;9.30;;;3.60;91.40;;;;;;5030278;28;20111;-78
2023/11/29 02:24:32;;;;;;;13.68;8.25;;;3.60;91.30;;;;;;5035936;28;20111;-78
2023/11/29 02:26:58;;;;;;;14.27;8.05;;;3.60;91.30;;;;;;5035511;28;20033;-77
2023/11/29 02:29:24;;;;;;;15.38;8.05;;;3.60;91.30;;;;;;5038325;28;20482;-78
2023/11/29 02:31:50;;;;;;;13.23;8.57;;;3.60;91.20;;;;;;5036971;28;20080;-78
2023/11/29 02:34:16;;;;;;;12.77;7.72;;;3.60;91.00;;;;;;5037614;28;20584;-79
2023/11/29 02:36:41;;;;;;;12.95;8.20;;;3.60;91.00;;;;;;5035877;28;20382;-77
2023/11/29 02:39:09;;;;;;;12.60;7.82;;;3.60;91.00;;;;;;5041851;28;20046;-77
2023/11/29 02:41:37;;;;;;;12.73;7.78;;;3.60;91.00;;;;;;5033458;28;20033;-78
2023/11/29 02:44:04;;;;;;;11.68;7.75;;;3.60;91.00;;;;;;5037223;28;20510;-77
2023/11/29 02:46:29;;;;;;;12.05;7.60;;;3.60;91.10;;;;;;5040652;28;20056;-77
2023/11/29 02:48:57;;;;;;;12.55;7.85;;;3.60;91.00;;;;;;5039198;28;20486;-80
2023/11/29 02:51:23;;;;;;;14.55;7.15;;;3.60;90.90;;;;;;5041880;28;20049;-79
2023/11/29 02:53:49;;;;;;;11.25;7.38;;;3.60;90.70;;;;;;5036459;28;20079;-78
2023/11/29 02:56:14;;;;;;;15.55;7.75;;;3.60;90.70;;;;;;5039703;28;20041;-77
2023/11/29 02:58:40;;;;;;;13.90;8.05;;;3.60;90.40;;;;;;5032318;28;20051;-78
2023/11/29 03:01:06;;;;;;;12.32;7.05;;;3.60;90.40;;;;;;5038548;28;20037;-79
2023/11/29 03:03:31;;;;;;;11.43;7.32;;;3.60;90.50;;;;;;5037552;28;20052;-77
2023/11/29 03:05:57;;;;;;;12.07;7.38;;;3.70;90.40;;;;;;5033578;28;20032;-77
2023/11/29 03:08:23;;;;;;;12.55;7.10;;;3.60;90.10;;;;;;5037617;28;20469;-77
2023/11/29 03:10:48;;;;;;;13.50;7.35;;;3.60;90.20;;;;;;5033913;28;20249;-79
2023/11/29 03:13:14;;;;;;;12.98;7.70;;;3.70;90.30;;;;;;5037613;28;20044;-77
2023/11/29 03:15:39;;;;;;;12.55;7.22;;;3.70;90.30;;;;;;5035786;28;20120;-77
2023/11/29 03:18:05;;;;;;;11.57;7.20;;;3.60;90.50;;;;;;5034160;28;20049;-78
2023/11/29 03:20:31;;;;;;;13.48;7.68;;;3.60;90.60;;;;;;5036065;28;20108;-78
2023/11/29 03:22:56;;;;;;;12.15;7.60;;;3.60;90.70;;;;;;5036047;28;20071;-78
2023/11/29 03:25:22;;;;;;;12.65;7.10;;;3.60;90.80;;;;;;5033765;28;20122;-77
2023/11/29 03:27:48;;;;;;;11.38;7.30;;;3.60;91.00;;;;;;5041166;28;20120;-77
2023/11/29 03:30:14;;;;;;;14.20;7.13;;;3.60;90.90;;;;;;5040332;28;20250;-78
2023/11/29 03:32:40;;;;;;;12.77;7.07;;;3.70;90.70;;;;;;5034875;28;20067;-78
2023/11/29 03:35:05;;;;;;;12.93;7.70;;;3.70;90.50;;;;;;5034247;28;20478;-78
2023/11/29 03:37:31;;;;;;;11.55;7.72;;;3.70;90.60;;;;;;5043662;28;20466;-77
2023/11/29 03:39:57;;;;;;;11.60;7.70;;;3.70;90.80;;;;;;5037802;28;20120;-78
2023/11/29 03:42:23;;;;;;;13.27;7.20;;;3.70;90.70;;;;;;5037626;28;20119;-78
2023/11/29 03:44:48;;;;;;;13.40;7.90;;;3.70;90.70;;;;;;5040988;28;20041;-78
2023/11/29 03:47:14;;;;;;;14.38;7.43;;;3.80;90.70;;;;;;5041018;28;20059;-78
2023/11/29 03:49:40;;;;;;;14.95;8.32;;;3.80;90.80;;;;;;5040877;28;20112;-77
2023/11/29 03:52:06;;;;;;;12.05;7.63;;;3.90;90.70;;;;;;5032912;28;20033;-78
2023/11/29 03:54:31;;;;;;;11.15;7.72;;;3.80;90.90;;;;;;5042438;28;20503;-77
2023/11/29 03:56:57;;;;;;;14.15;7.65;;;3.80;91.20;;;;;;5042866;28;20033;-78
2023/11/29 03:59:23;;;;;;;14.65;8.43;;;3.80;91.30;;;;;;5039437;28;20021;-79
2023/11/29 04:01:48;;;;;;;14.23;8.77;;;3.80;91.60;;;;;;5038252;28;20025;-79
2023/11/29 04:04:14;;;;;;;16.75;9.95;;;3.90;91.50;;;;;;5035807;28;20438;-78
2023/11/29 04:06:40;;;;;;;15.65;8.48;;;3.90;91.60;;;;;;5036196;28;20365;-77
2023/11/29 04:09:05;;;;;;;13.73;8.55;;;3.90;91.90;;;;;;5038517;28;20025;-77
2023/11/29 04:11:31;;;;;;;12.68;7.30;;;3.90;92.00;;;;;;5036631;28;20025;-79
2023/11/29 04:13:57;;;;;;;10.18;6.93;;;3.90;92.10;;;;;;5040227;28;20029;-78
2023/11/29 04:16:25;;;;;;;10.38;6.38;;;3.90;92.10;;;;;;5037873;28;20478;-79
2023/11/29 04:18:52;;;;;;;13.63;6.43;;;3.80;92.30;;;;;;5057937;28;20070;-77
2023/11/29 04:21:38;;;;;;;11.93;7.32;;;3.70;92.50;;;;;;5037369;28;20037;-77
2023/11/29 04:24:04;;;;;;;11.90;6.80;;;3.60;92.60;;;;;;5041068;28;20045;-77
2023/11/29 04:26:37;;;;;;;15.25;7.10;;;3.60;92.80;;;;;;5042668;28;20077;-77
2023/11/29 04:29:04;;;;;;;10.85;6.90;;;3.60;92.80;;;;;;5038538;28;20036;-77
2023/11/29 04:31:31;;;;;;;11.65;6.57;;;3.60;92.90;;;;;;5034614;28;20037;-80
2023/11/29 04:33:58;;;;;;;12.05;7.22;;;3.60;93.00;;;;;;5036297;28;20259;-77
2023/11/29 04:36:23;;;;;;;11.68;6.90;;;3.50;93.10;;;;;;5042401;28;20036;-77
2023/11/29 04:38:50;;;;;;;13.00;7.45;;;3.60;93.30;;;;;;5040925;28;20053;-77
2023/11/29 04:41:16;;;;;;;10.98;6.88;;;3.50;93.40;;;;;;5033553;28;20033;-78
2023/11/29 04:43:43;;;;;;;13.15;7.45;;;3.50;93.50;;;;;;5032191;28;20056;-77
2023/11/29 04:46:09;;;;;;;12.05;8.07;;;3.50;93.60;;;;;;5035674;28;20036;-77
2023/11/29 04:48:35;;;;;;;11.50;7.25;;;3.50;93.70;;;;;;5032300;28;20059;-78
2023/11/29 04:51:01;;;;;;;14.25;8.18;;;3.50;93.80;;;;;;5035948;28;20446;-78
2023/11/29 04:53:28;;;;;;;13.70;7.82;;;3.50;94.00;;;;;;5040483;28;20039;-77
2023/11/29 04:55:55;;;;;;;13.25;7.97;;;3.50;94.10;;;;;;5037552;28;20033;-77
2023/11/29 04:58:21;;;;;;;12.40;8.10;;;3.50;94.10;;;;;;5035354;28;20416;-77
2023/11/29 05:00:47;;;;;;;13.95;8.02;;;3.40;94.20;;;;;;5040694;28;20132;-77
2023/11/29 05:03:14;;;;;;;14.52;8.30;;;3.40;94.30;;;;;;5036910;28;20033;-78
2023/11/29 05:05:41;;;;;;;12.68;7.72;;;3.40;94.40;;;;;;5044944;28;20128;-78
2023/11/29 05:08:06;;;;;;;16.77;9.52;;;3.40;94.50;;;;;;5038954;28;20031;-77
2023/11/29 05:10:32;;;;;;;17.45;10.63;;;3.40;94.60;;;;;;5029808;28;20037;-77
2023/11/29 05:12:58;;;;;;;20.30;10.80;;;3.40;94.80;;;;;;5035660;28;20489;-77
2023/11/29 05:15:23;;;;;;;19.63;10.52;;;3.40;95.00;;;;;;5043070;28;20041;-77
2023/11/29 05:17:49;;;;;;;16.80;9.48;;;3.40;95.00;;;;;;5036436;28;20047;-79
2023/11/29 05:20:15;;;;;;;15.02;8.73;;;3.40;95.20;;;;;;5036215;28;20435;-77
2023/11/29 05:22:40;;;;;;;12.88;8.55;;;3.40;95.10;;;;;;5033740;28;20029;-78
2023/11/29 05:25:06;;;;;;;15.20;8.38;;;3.40;95.10;;;;;;5041333;28;20041;-78
2023/11/29 05:27:32;;;;;;;17.77;8.65;;;3.30;95.10;;;;;;5039571;28;20492;-77
2023/11/29 05:29:58;;;;;;;13.82;8.60;;;3.30;95.20;;;;;;5040872;28;20080;-78
2023/11/29 05:32:23;;;;;;;15.35;8.55;;;3.20;95.20;;;;;;5032679;28;20043;-79
2023/11/29 05:34:49;;;;;;;15.45;7.72;;;3.20;95.30;;;;;;5042290;28;20033;-79
2023/11/29 05:37:15;;;;;;;14.18;8.05;;;3.20;95.40;;;;;;5037623;28;20044;-78
2023/11/29 05:39:41;;;;;;;14.75;8.48;;;3.10;95.40;;;;;;5030919;28;20042;-78
2023/11/29 05:42:07;;;;;;;12.90;7.30;;;3.10;95.50;;;;;;5031372;28;20772;-78
2023/11/29 05:44:33;;;;;;;13.90;9.20;;;3.20;95.60;;;;;;5031176;28;20033;-77
2023/11/29 05:46:59;;;;;;;16.02;8.23;;;3.20;95.70;;;;;;5033031;28;20505;-78
2023/11/29 05:49:25;;;;;;;14.15;8.52;;;3.20;95.70;;;;;;5026586;28;20041;-77
2023/11/29 05:51:50;;;;;;;17.48;9.20;;;3.20;95.70;;;;;;5028736;28;20037;-77
2023/11/29 05:54:16;;;;;;;15.63;8.88;;;3.20;95.70;;;;;;5029325;28;20463;-77
2023/11/29 05:56:42;;;;;;;15.00;8.38;;;3.10;95.80;;;;;;5038030;28;20506;-79
2023/11/29 05:59:07;;;;;;;16.48;9.88;;;3.20;95.80;;;;;;5040808;28;20074;-77
2023/11/29 06:01:33;;;;;;;14.93;9.05;;;3.10;95.80;;;;;;5035354;28;20047;-78
2023/11/29 06:03:59;;;;;;;16.23;9.02;;;3.10;95.90;;;;;;5035500;28;20486;-77
2023/11/29 06:06:24;;;;;;;15.63;9.20;;;3.10;95.90;;;;;;5035465;28;20037;-78
2023/11/29 06:08:50;;;;;;;16.48;9.77;;;3.10;96.00;;;;;;5030038;28;20028;-80
2023/11/29 06:11:16;;;;;;;17.15;9.77;;;3.10;96.00;;;;;;5030887;28;20350;-79
2023/11/29 06:13:42;;;;;;;16.50;9.63;;;3.10;96.10;;;;;;5035494;28;20049;-79
2023/11/29 06:16:11;;;;;;;15.45;9.77;;;3.00;96.10;;;;;;5034480;28;20045;-81
2023/11/29 06:18:38;;;;;;;18.92;10.57;;;3.00;96.20;;;;;;5032171;28;20046;-80
2023/11/29 06:21:04;;;;;;;19.13;10.57;;;3.00;96.20;;;;;;5025682;28;20478;-76
2023/11/29 06:23:30;;;;;;;16.80;10.40;;;3.00;96.20;;;;;;5035345;28;20068;-80
2023/11/29 06:25:56;;;;;;;18.20;9.95;;;3.00;96.30;;;;;;5036916;28;20179;-79
2023/11/29 06:28:22;;;;;;;17.40;11.15;;;2.90;96.40;;;;;;5034251;28;20691;-80
2023/11/29 06:30:48;;;;;;;21.50;10.57;;;3.00;96.40;;;;;;5034708;28;20033;-82
2023/11/29 06:33:13;;;;;;;20.45;10.57;;;3.00;96.50;;;;;;5034062;28;20063;-79
2023/11/29 06:35:40;;;;;;;18.23;10.05;;;3.00;96.50;;;;;;5039200;28;20117;-81
2023/11/29 06:38:05;;;;;;;17.95;10.77;;;3.00;96.60;;;;;;5038379;28;20169;-79
2023/11/29 06:40:32;;;;;;;17.80;10.27;;;3.00;96.70;;;;;;5039540;28;20033;-78
2023/11/29 06:42:58;;;;;;;18.55;11.52;;;3.10;96.80;;;;;;5035117;28;20704;-79
2023/11/29 06:45:24;;;;;;;17.67;10.65;;;3.10;96.80;;;;;;5034133;28;20049;-79
2023/11/29 06:47:52;;;;;;;17.08;10.10;;;3.10;96.80;;;;;;5035028;28;20415;-80
2023/11/29 06:50:18;;;;;;;18.77;11.10;;;3.10;96.90;;;;;;5033842;28;20376;-81
2023/11/29 06:52:44;;;;;;;18.80;11.88;;;3.10;96.80;;;;;;5035493;28;20033;-80
2023/11/29 06:55:10;;;;;;;17.83;10.80;;;3.10;96.90;;;;;;5035604;28;20040;-79
2023/11/29 06:57:36;;;;;;;23.38;11.45;;;3.00;96.80;;;;;;5050193;28;20135;-80
2023/11/29 07:00:09;;;;;;;22.98;12.10;;;3.10;96.90;;;;;;5052164;28;20037;-80
2023/11/29 07:02:40;;;;;;;21.92;11.82;;;3.10;96.80;;;;;;5041669;28;20033;-80
2023/11/29 07:05:07;;;;;;;21.98;11.77;;;3.00;96.80;;;;;;5046354;28;20053;-80
2023/11/29 07:07:34;;;;;;;18.77;11.63;;;3.00;96.80;;;;;;5042482;28;20112;-80
2023/11/29 07:09:59;;;;;;;18.75;11.35;;;3.00;96.90;;;;;;5048058;28;20079;-81
2023/11/29 07:12:26;;;;;;;19.33;12.68;;;3.00;97.00;;;;;;5044869;28;20025;-80
2023/11/29 07:14:53;;;;;;;21.02;11.65;;;3.00;97.00;;;;;;5046407;28;20240;-76
2023/11/29 07:17:19;;;;;;;19.50;10.88;;;3.00;97.10;;;;;;5056963;28;20053;-76
2023/11/29 07:19:47;;;;;;;20.58;11.90;;;3.00;97.10;;;;;;5052568;28;20021;-78
2023/11/29 07:22:14;;;;;;;21.63;12.07;;;3.00;97.10;;;;;;5053048;28;20470;-74
2023/11/29 07:24:40;;;;;;;19.60;11.82;;;3.10;97.20;;;;;;5041639;28;20465;-76
2023/11/29 07:27:07;;;;;;;21.48;11.98;;;3.10;97.20;;;;;;5043666;28;20057;-76
2023/11/29 07:29:32;;;;;;;17.95;12.15;;;3.10;97.20;;;;;;5041644;28;20095;-74
2023/11/29 07:31:58;;;;;;;22.90;11.57;;;3.10;97.10;;;;;;5044230;28;20469;-74
2023/11/29 07:34:24;;;;;;;23.55;11.98;;;3.10;97.10;;;;;;5044322;28;20369;-75
2023/11/29 07:36:52;;;;;;;19.42;11.20;;;3.10;97.10;;;;;;5041066;28;20551;-75
2023/11/29 07:39:20;;;;;;;20.33;11.15;;;3.10;97.10;;;;;;5044370;28;20063;-76
2023/11/29 07:41:47;;;;;;;18.73;11.15;;;3.10;97.00;;;;;;5044563;28;20469;-76
2023/11/29 07:44:14;;;;;;;19.48;11.27;;;3.10;96.90;;;;;;5043975;28;20311;-75
2023/11/29 07:46:39;;;;;;;24.23;12.73;;;3.10;96.90;;;;;;5039294;28;20041;-78
2023/11/29 07:49:05;;;;;;;20.65;12.52;;;3.10;97.00;;;;;;5038637;28;20115;-76
2023/11/29 07:51:31;;;;;;;21.63;11.73;;;3.10;97.00;;;;;;5038081;28;20512;-75
2023/11/29 07:53:56;;;;;;;20.40;10.93;;;3.20;97.00;;;;;;5042260;28;20345;-76
2023/11/29 07:56:22;;;;;;;19.05;10.60;;;3.20;96.90;;;;;;5037894;28;20033;-75
2023/11/29 07:58:47;;;;;;;19.92;11.77;;;3.10;96.80;;;;;;5035480;28;20029;-75
2023/11/29 08:01:13;;;;;;;20.35;12.27;;;3.10;96.80;;;;;;5034815;28;20044;-75
2023/11/29 08:03:40;;;;;;;18.23;12.02;;;3.10;96.80;;;;;;5032058;28;20057;-74
2023/11/29 08:06:07;;;;;;;20.17;12.43;;;3.10;96.80;;;;;;5044189;28;20714;-75
2023/11/29 08:08:34;;;;;;;21.38;12.02;;;3.20;96.80;;;;;;5039327;28;20552;-75
2023/11/29 08:10:59;;;;;;;20.70;12.18;;;3.20;96.70;;;;;;5043420;28;20032;-75
2023/11/29 08:13:26;;;;;;;21.13;11.85;;;3.20;96.70;;;;;;5045131;28;20034;-76
2023/11/29 08:15:56;;;;;;;21.00;12.57;;;3.20;96.70;;;;;;5045207;28;20102;-75
2023/11/29 08:18:22;;;;;;;26.98;12.55;;;3.20;96.60;;;;;;5038791;28;20128;-74
2023/11/29 08:20:48;;;;;;;23.58;12.38;;;3.20;96.50;;;;;;5039865;28;20128;-77
2023/11/29 08:23:14;;;;;;;23.35;12.82;;;3.30;96.50;;;;;;5034931;28;20037;-74
2023/11/29 08:25:39;;;;;;;25.00;12.65;;;3.40;96.50;;;;;;5043503;28;20095;-75
2023/11/29 08:28:05;;;;;;;18.73;12.20;;;3.40;96.40;;;;;;5031858;28;20037;-75
2023/11/29 08:30:30;;;;;;;22.35;11.80;;;3.50;96.40;;;;;;5035361;28;20049;-75
2023/11/29 08:32:57;;;;;;;20.30;11.77;;;3.50;96.40;;;;;;5040935;28;20047;-77
2023/11/29 08:35:23;;;;;;;20.77;12.02;;;3.60;96.30;;;;;;5044696;28;20559;-74
2023/11/29 08:37:50;;;;;;;21.40;12.13;;;3.70;96.20;;;;;;5042906;28;20045;-74
2023/11/29 08:40:16;;;;;;;22.25;12.15;;;3.70;96.00;;;;;;5037890;28;20125;-78
2023/11/29 08:42:41;;;;;;;19.13;12.30;;;3.90;96.00;;;;;;5036108;28;20632;-74
2023/11/29 08:45:08;;;;;;;21.00;11.68;;;4.00;95.70;;;;;;5037804;28;20394;-74
2023/11/29 08:47:34;;;;;;;21.73;13.00;;;4.00;95.40;;;;;;5034228;28;20474;-75
2023/11/29 08:49:59;;;;;;;21.08;12.00;;;4.10;95.20;;;;;;5033045;28;20069;-76
2023/11/29 08:52:25;;;;;;;20.02;11.90;;;4.20;95.10;;;;;;5039901;28;20045;-77
2023/11/29 08:54:53;;;;;;;18.38;11.80;;;4.40;95.00;;;;;;5041138;28;20032;-76
2023/11/29 08:57:22;;;;;;;21.33;12.40;;;4.50;94.50;;;;;;5043292;28;20033;-76
2023/11/29 08:59:50;;;;;;;18.38;12.48;;;4.60;94.30;;;;;;5030031;28;20037;-75
2023/11/29 09:02:20;;;;;;;23.05;13.95;;;4.70;93.90;;;;;;5034524;28;20041;-75
2023/11/29 09:04:45;;;;;;;22.80;14.85;;;4.80;93.50;;;;;;5040895;28;20385;-75
2023/11/29 09:07:12;;;;;;;20.58;13.32;;;4.90;93.20;;;;;;5034595;28;20035;-75
2023/11/29 09:09:37;;;;;;;23.90;13.30;;;5.00;93.00;;;;;;5042852;28;20147;-76
2023/11/29 09:12:03;;;;;;;20.33;12.68;;;5.00;92.50;;;;;;5042502;28;20067;-74
2023/11/29 09:14:29;;;;;;;21.75;12.32;;;5.10;92.30;;;;;;5041812;28;20040;-75
2023/11/29 09:16:56;;;;;;;17.40;11.50;;;5.10;92.10;;;;;;5034715;28;20041;-75
2023/11/29 09:19:22;;;;;;;18.15;11.43;;;5.20;91.90;;;;;;5038005;28;20116;-76
2023/11/29 09:21:48;;;;;;;19.83;12.45;;;5.40;92.00;;;;;;5038760;28;20118;-77
2023/11/29 09:24:14;;;;;;;17.20;11.15;;;5.50;91.70;;;;;;5041390;28;20126;-73
2023/11/29 09:26:41;;;;;;;18.52;11.82;;;5.60;91.30;;;;;;5045824;28;20033;-73
2023/11/29 09:29:07;;;;;;;22.40;12.07;;;5.70;90.80;;;;;;5041073;28;20046;-78
2023/11/29 09:31:33;;;;;;;19.92;11.52;;;5.70;90.30;;;;;;5032700;28;20540;-75
2023/11/29 09:33:59;;;;;;;24.58;12.48;;;5.70;89.80;;;;;;5040534;28;20021;-78
2023/11/29 09:36:25;;;;;;;19.90;11.65;;;5.70;89.70;;;;;;5036278;28;20496;-76
2023/11/29 09:38:50;;;;;;;17.42;11.65;;;5.70;89.50;;;;;;5035744;28;20048;-74
2023/11/29 09:41:17;;;;;;;17.83;11.60;;;5.60;89.40;;;;;;5037139;28;20037;-75
2023/11/29 09:43:44;;;;;;;19.65;11.32;;;5.70;89.70;;;;;;5036640;28;20282;-74
2023/11/29 09:46:11;;;;;;;18.98;12.15;;;5.80;89.80;;;;;;5035033;28;20041;-74
2023/11/29 09:48:37;;;;;;;18.20;11.30;;;5.90;89.70;;;;;;5031633;28;20500;-76
2023/11/29 09:51:03;;;;;;;18.52;11.18;;;6.00;89.40;;;;;;5037726;28;20057;-73
2023/11/29 09:53:30;;;;;;;17.80;10.32;;;6.10;89.30;;;;;;5037332;28;20044;-74
2023/11/29 09:55:57;;;;;;;18.30;9.95;;;6.10;88.50;;;;;;5032019;28;20041;-77
2023/11/29 09:58:24;;;;;;;21.85;11.40;;;6.20;88.60;;;;;;5038320;28;20128;-75
2023/11/29 10:00:50;;;;;;;18.20;9.93;;;6.20;88.50;;;;;;5039827;28;20116;-74
2023/11/29 10:03:16;;;;;;;15.82;10.20;;;6.20;88.00;;;;;;5034229;28;20437;-76
2023/11/29 10:05:46;;;;;;;15.18;9.57;;;6.20;88.50;;;;;;5034728;28;20037;-73
2023/11/29 10:08:22;;;;;;;21.13;9.82;;;6.30;88.60;;;;;;5031146;28;20046;-73
2023/11/29 10:10:49;;;;;;;20.10;10.50;;;6.30;87.80;;;;;;5040760;28;20028;-74
2023/11/29 10:13:17;;;;;;;19.50;9.38;;;6.50;88.10;;;;;;5037926;28;20112;-74
2023/11/29 10:15:48;;;;;;;13.90;9.10;;;6.70;88.10;;;;;;5034479;28;20040;-74
2023/11/29 10:18:16;;;;;;;17.73;9.18;;;6.60;87.40;;;;;;5041593;28;20033;-74
2023/11/29 10:20:51;;;;;;;18.63;9.68;;;6.70;87.60;;;;;;5037473;28;20036;-77
2023/11/29 10:23:17;;;;;;;16.95;9.07;;;6.60;87.50;;;;;;5038429;28;20025;-75
2023/11/29 10:25:46;;;;;;;20.33;9.73;;;6.70;88.10;;;;;;5037849;28;20287;-74
2023/11/29 10:28:12;;;;;;;17.92;9.13;;;6.70;87.80;;;;;;5031764;28;20039;-74
2023/11/29 10:30:41;;;;;;;17.15;8.65;;;6.80;87.60;;;;;;5035439;28;20117;-74
2023/11/29 10:33:09;;;;;;;16.45;9.82;;;6.80;86.90;;;;;;5032541;28;20057;-73
2023/11/29 10:35:37;;;;;;;15.98;8.90;;;6.90;87.60;;;;;;5039153;28;20488;-77
2023/11/29 10:38:13;;;;;;;19.48;8.75;;;7.00;87.00;;;;;;5036709;28;20030;-77
2023/11/29 10:40:40;;;;;;;19.20;8.80;;;7.00;86.10;;;;;;5035896;28;20099;-76
2023/11/29 10:43:09;;;;;;;17.88;9.20;;;7.10;86.00;;;;;;5034105;28;20239;-74
2023/11/29 10:45:36;;;;;;;13.50;7.95;;;7.00;86.20;;;;;;5038212;28;20424;-73
2023/11/29 10:48:14;;;;;;;15.85;8.73;;;6.90;85.90;;;;;;5039356;28;20033;-77
2023/11/29 10:50:41;;;;;;;14.25;8.68;;;7.00;86.50;;;;;;5048196;28;20120;-77
2023/11/29 10:53:07;;;;;;;14.35;7.97;;;7.00;86.00;;;;;;5048153;28;20037;-73
2023/11/29 10:55:38;;;;;;;14.15;7.45;;;7.00;86.00;;;;;;5045025;28;20037;-72
2023/11/29 10:58:26;;;;;;;16.05;7.80;;;7.00;86.30;;;;;;5025517;28;20029;-76
2023/11/29 11:00:53;;;;;;;13.55;7.85;;;7.10;86.20;;;;;;5030043;28;20068;-73
2023/11/29 11:03:41;;;;;;;14.27;7.95;;;7.10;85.70;;;;;;5041672;28;20041;-75
2023/11/29 11:06:37;;;;;;;15.18;7.90;;;7.10;86.40;;;;;;5044359;28;20053;-73
2023/11/29 11:09:06;;;;;;;14.75;8.05;;;7.20;85.60;;;;;;5034024;28;20094;-76
2023/11/29 11:11:43;;;;;;;17.70;8.52;;;7.20;85.80;;;;;;5052029;28;20255;-75
2023/11/29 11:14:20;;;;;;;15.00;7.70;;;7.50;85.50;;;;;;5040075;28;20051;-74
2023/11/29 11:17:06;;;;;;;12.68;7.65;;;7.60;85.10;;;;;;5046180;28;20537;-75
2023/11/29 11:19:39;;;;;;;13.65;7.55;;;7.80;85.10;;;;;;5034811;28;20116;-75
2023/11/29 11:22:26;;;;;;;11.50;7.15;;;7.80;84.20;;;;;;5038473;28;20033;-74
2023/11/29 11:24:59;;;;;;;15.77;8.43;;;7.80;83.40;;;;;;5034389;28;20120;-77
2023/11/29 11:27:34;;;;;;;11.07;6.80;;;7.80;84.30;;;;;;5038705;28;20033;-76
2023/11/29 11:30:28;;;;;;;14.55;7.15;;;7.80;83.80;;;;;;5042526;28;20379;-75
2023/11/29 11:32:57;;;;;;;13.52;6.60;;;7.90;83.40;;;;;;5029943;28;20048;-75
2023/11/29 11:35:25;;;;;;;15.07;7.32;;;8.10;83.10;;;;;;5034119;28;20116;-74
2023/11/29 11:37:53;;;;;;;14.05;6.72;;;8.10;83.60;;;;;;5037507;28;20025;-74
2023/11/29 11:40:19;;;;;;;10.35;5.53;;;8.00;82.60;;;;;;5029900;28;20053;-76
2023/11/29 11:42:46;;;;;;;13.75;6.88;;;8.00;82.80;;;;;;5034414;28;20044;-77
2023/11/29 11:45:13;;;;;;;13.10;4.20;;;7.90;82.70;;;;;;5034281;28;20044;-75
2023/11/29 11:47:41;;;;;;;7.88;3.65;;;7.60;80.90;;;;;;5033315;28;20167;-73
2023/11/29 11:50:08;;;;;;;10.48;4.03;;;7.50;81.10;;;;;;5035290;28;20056;-78
2023/11/29 11:52:35;;;;;;;7.70;3.67;;;7.50;80.70;;;;;;5037675;28;20033;-74
2023/11/29 11:55:09;;;;;;;10.43;3.55;;;7.20;80.10;;;;;;5030943;28;20037;-75
2023/11/29 11:57:36;;;;;;;8.48;4.00;;;7.10;81.30;;;;;;5032668;28;20048;-74
2023/11/29 12:00:07;;;;;;;10.98;4.13;;;7.00;81.40;;;;;;5036296;28;20049;-77
2023/11/29 12:02:34;;;;;;;8.93;3.35;;;7.00;82.10;;;;;;5033501;28;20165;-77
2023/11/29 12:05:00;;;;;;;8.73;3.20;;;6.90;81.40;;;;;;5034824;28;20053;-74
2023/11/29 12:07:27;;;;;;;8.05;2.60;;;6.80;81.00;;;;;;5035545;28;20136;-77
2023/11/29 12:09:55;;;;;;;8.13;2.85;;;6.80;81.30;;;;;;5030747;28;20037;-74
2023/11/29 12:12:21;;;;;;;9.82;2.83;;;6.60;81.20;;;;;;5037032;28;20086;-74
2023/11/29 12:14:48;;;;;;;8.45;3.28;;;6.60;81.20;;;;;;5035410;28;20037;-75
2023/11/29 12:17:17;;;;;;;6.72;2.40;;;6.50;81.30;;;;;;5034303;28;20103;-74
2023/11/29 12:19:45;;;;;;;6.57;2.30;;;6.50;81.60;;;;;;5031880;28;20039;-76
2023/11/29 12:22:14;;;;;;;6.50;3.00;;;6.40;81.50;;;;;;5020419;28;20080;-78
2023/11/29 12:24:41;;;;;;;8.95;2.67;;;6.40;81.50;;;;;;5012579;28;20061;-76
2023/11/29 12:27:07;;;;;;;8.18;2.88;;;6.40;81.70;;;;;;5013174;28;20052;-73
2023/11/29 12:29:37;;;;;;;7.90;2.90;;;6.40;81.50;;;;;;5013823;28;20022;-74
2023/11/29 12:32:05;;;;;;;8.38;3.17;;;6.60;81.90;;;;;;5031457;28;20620;-72
2023/11/29 12:34:31;;;;;;;6.85;2.95;;;6.60;81.50;;;;;;5026602;28;20391;-72
2023/11/29 12:37:01;;;;;;;10.55;2.97;;;6.70;81.50;;;;;;5019190;28;20037;-73
2023/11/29 12:39:35;;;;;;;4.93;2.88;;;6.70;80.40;;;;;;5013124;28;20087;-73
2023/11/29 12:42:05;;;;;;;;;;;6.80;80.20;;;;;;5013044;28;20049;-72